Rexburg, ID (83441)

7:27 AM MST on December 21, 2014 (GMT -0700)
Rexburg-Madison County | Change Station
CLOSE
Current Station
Airport
Location: Rexburg,
Elevation: 4859 ft
Nearby Weather Stations
Active Advisory: Winter Storm Warning Active Notice: Local Storm Report

Elev 4859 ft 43.83 °N, 111.81 °W | Updated 34 minutes ago

Overcast
Overcast
36 °F
Feels Like 25 °F
N
21
Wind Variable Wind from SW
Gusts 31 mph

Today
High -- | Low -- °F
--% Chance of Precip.
Yesterday
High -- | Low -- °F
Precip. -- in
7:57 AM 4:52 PM
Waning Crescent, 0% visible
Pressure 29.73 in
Visibility 10.0 miles
Clouds Overcast 800 ft
Windchill 25 °F
Dew Point 36 °F
Humidity 100%
Rainfall 0.14 in
Snow Depth Not available.
UV 0 out of 12
Pollen .10 out of 12
Air Quality Not available.
Flu Activity Not available.
METAR KRXE 211353Z AUTO 22018G27KT 10SM OVC008 02/02 A2970 RMK AO2 PK WND 23027/1347 CIG 005V011 SLP067 T00220022

More Conditions Fewer Conditions

Pressure 29.73 in
Visibility 10.0 miles
Clouds Overcast 800 ft
Windchill 25 °F
Dew Point 36 °F
Humidity 100%
Rainfall 0.14 in
Snow Depth Not available.
UV 0 out of 12
Pollen .10 out of 12
Air Quality Not available.
Flu Activity Not available.
METAR KRXE 211353Z AUTO 22018G27KT 10SM OVC008 02/02 A2970 RMK AO2 PK WND 23027/1347 CIG 005V011 SLP067 T00220022

More Conditions Fewer Conditions

10-Day Weather Forecast

Almanac

Astronomy

Dec. 21, 2014 Rise Set
Actual Time
Civil Twilight
Nautical Twilight
Astronomical Twilight
Moon
Length of Visible Light
Length of Day
Tomorrow will be .
, % of the Moon is Illuminated

Today's Extremes

State Highs State Lows

Community

WunderPhotos

Upload Photos

1,779,392 photos uploaded!

WunderBlogs® & News

Nearby

Air Quality

  Air Quality AQ Index Pollutant
Not available.

Snow Depth

Station Depth Elevation

Earthquake Activity

City Distance Mag. Time & Date
Minimum magnitude displayed is 2.5.

Coastal Water Temperatures

Place Temperature

Nearby Weather Stations